sensor_id;sensor_type;location;lat;lon;timestamp;P1;durP1;ratioP1;P2;durP2;ratioP2
55527;SDS011;52818;43.308;21.916;2022-10-16T00:00:51;6.40;;;3.30;;
55527;SDS011;52818;43.308;21.916;2022-10-16T00:02:51;4.70;;;3.20;;
55527;SDS011;52818;43.308;21.916;2022-10-16T00:04:51;4.50;;;;;
55527;SDS011;52818;43.308;21.916;2022-10-16T00:06:51;4.70;;;3.10;;
55527;SDS011;52818;43.308;21.916;2022-10-16T00:08:51;4.90;;;3.40;;
55527;SDS011;52818;43.308;21.916;2022-10-16T00:10:52;4.70;;;;;
55527;SDS011;52818;43.308;21.916;2022-10-16T00:12:52;5.60;;;3.20;;
55527;SDS011;52818;43.308;21.916;2022-10-16T00:14:52;5.80;;;3.30;;
55527;SDS011;52818;43.308;21.916;2022-10-16T00:16:52;5.50;;;3.60;;
55527;SDS011;52818;43.308;21.916;2022-10-16T00:18:52;6.50;;;3.80;;
55527;SDS011;52818;43.308;21.916;2022-10-16T00:20:52;5.00;;;3.00;;
55527;SDS011;52818;43.308;21.916;2022-10-16T00:22:52;3.80;;;3.30;;
55527;SDS011;52818;43.308;21.916;2022-10-16T00:24:52;6.00;;;3.20;;
55527;SDS011;52818;43.308;21.916;2022-10-16T00:26:52;4.10;;;3.00;;
55527;SDS011;52818;43.308;21.916;2022-10-16T00:28:52;3.80;;;3.10;;
55527;SDS011;52818;43.308;21.916;2022-10-16T00:30:53;6.00;;;3.30;;
55527;SDS011;52818;43.308;21.916;2022-10-16T00:32:53;4.20;;;3.10;;
55527;SDS011;52818;43.308;21.916;2022-10-16T00:34:53;5.70;;;3.30;;
55527;SDS011;52818;43.308;21.916;2022-10-16T00:36:53;5.00;;;;;
55527;SDS011;52818;43.308;21.916;2022-10-16T00:38:53;4.70;;;3.20;;
55527;SDS011;52818;43.308;21.916;2022-10-16T00:40:53;4.90;;;;;
55527;SDS011;52818;43.308;21.916;2022-10-16T00:42:53;5.00;;;3.30;;
55527;SDS011;52818;43.308;21.916;2022-10-16T00:44:54;4.80;;;3.20;;
55527;SDS011;52818;43.308;21.916;2022-10-16T00:46:54;;;;3.00;;
55527;SDS011;52818;43.308;21.916;2022-10-16T00:48:55;5.00;;;3.20;;
55527;SDS011;52818;43.308;21.916;2022-10-16T00:50:54;3.80;;;2.90;;
55527;SDS011;52818;43.308;21.916;2022-10-16T00:52:54;5.40;;;3.20;;
55527;SDS011;52818;43.308;21.916;2022-10-16T00:54:54;5.20;;;3.00;;
55527;SDS011;52818;43.308;21.916;2022-10-16T00:56:54;4.20;;;2.90;;
55527;SDS011;52818;43.308;21.916;2022-10-16T00:58:54;5.20;;;3.10;;
55527;SDS011;52818;43.308;21.916;2022-10-16T01:00:54;4.80;;;2.90;;
55527;SDS011;52818;43.308;21.916;2022-10-16T01:02:55;4.40;;;3.00;;
55527;SDS011;52818;43.308;21.916;2022-10-16T01:04:54;5.90;;;3.10;;
55527;SDS011;52818;43.308;21.916;2022-10-16T01:06:56;5.70;;;;;
55527;SDS011;52818;43.308;21.916;2022-10-16T01:08:58;4.70;;;3.20;;
55527;SDS011;52818;43.308;21.916;2022-10-16T01:10:56;9.60;;;3.70;;
55527;SDS011;52818;43.308;21.916;2022-10-16T01:12:56;12.80;;;3.50;;
55527;SDS011;52818;43.308;21.916;2022-10-16T01:14:56;9.70;;;3.80;;
55527;SDS011;52818;43.308;21.916;2022-10-16T01:16:56;5.90;;;3.40;;
55527;SDS011;52818;43.308;21.916;2022-10-16T01:18:57;4.70;;;;;
55527;SDS011;52818;43.308;21.916;2022-10-16T01:20:56;4.90;;;3.10;;
55527;SDS011;52818;43.308;21.916;2022-10-16T01:22:58;4.20;;;;;
55527;SDS011;52818;43.308;21.916;2022-10-16T01:24:55;6.10;;;3.50;;
55527;SDS011;52818;43.308;21.916;2022-10-16T01:27:06;4.70;;;;;
55527;SDS011;52818;43.308;21.916;2022-10-16T01:28:56;5.70;;;3.40;;
55527;SDS011;52818;43.308;21.916;2022-10-16T01:30:57;4.90;;;3.60;;
55527;SDS011;52818;43.308;21.916;2022-10-16T01:32:56;6.10;;;3.50;;
55527;SDS011;52818;43.308;21.916;2022-10-16T01:34:57;5.10;;;;;
55527;SDS011;52818;43.308;21.916;2022-10-16T01:36:56;4.60;;;3.10;;
55527;SDS011;52818;43.308;21.916;2022-10-16T01:38:56;4.70;;;2.90;;
55527;SDS011;52818;43.308;21.916;2022-10-16T01:40:57;4.40;;;3.30;;
55527;SDS011;52818;43.308;21.916;2022-10-16T01:42:58;5.00;;;3.10;;
55527;SDS011;52818;43.308;21.916;2022-10-16T01:44:56;4.90;;;3.40;;
55527;SDS011;52818;43.308;21.916;2022-10-16T01:46:56;4.00;;;2.90;;
55527;SDS011;52818;43.308;21.916;2022-10-16T01:48:56;4.30;;;3.40;;
55527;SDS011;52818;43.308;21.916;2022-10-16T01:50:58;4.20;;;3.20;;
55527;SDS011;52818;43.308;21.916;2022-10-16T01:52:57;5.50;;;2.90;;
55527;SDS011;52818;43.308;21.916;2022-10-16T01:54:57;5.90;;;3.20;;
55527;SDS011;52818;43.308;21.916;2022-10-16T01:56:57;7.60;;;3.30;;
55527;SDS011;52818;43.308;21.916;2022-10-16T01:58:57;4.10;;;3.20;;
55527;SDS011;52818;43.308;21.916;2022-10-16T02:00:57;5.70;;;3.40;;
55527;SDS011;52818;43.308;21.916;2022-10-16T02:02:57;5.20;;;3.30;;
55527;SDS011;52818;43.308;21.916;2022-10-16T02:04:58;5.40;;;3.20;;
55527;SDS011;52818;43.308;21.916;2022-10-16T02:06:57;4.70;;;3.40;;
55527;SDS011;52818;43.308;21.916;2022-10-16T02:08:57;5.80;;;3.10;;
55527;SDS011;52818;43.308;21.916;2022-10-16T02:10:57;4.50;;;;;
55527;SDS011;52818;43.308;21.916;2022-10-16T02:12:59;5.90;;;3.60;;
55527;SDS011;52818;43.308;21.916;2022-10-16T02:14:58;4.60;;;3.30;;
55527;SDS011;52818;43.308;21.916;2022-10-16T02:16:58;5.10;;;3.50;;
55527;SDS011;52818;43.308;21.916;2022-10-16T02:18:58;6.00;;;3.60;;
55527;SDS011;52818;43.308;21.916;2022-10-16T02:20:59;5.50;;;3.90;;
55527;SDS011;52818;43.308;21.916;2022-10-16T02:22:58;5.80;;;4.00;;
55527;SDS011;52818;43.308;21.916;2022-10-16T02:24:58;6.50;;;4.30;;
55527;SDS011;52818;43.308;21.916;2022-10-16T02:27:00;6.40;;;4.10;;
55527;SDS011;52818;43.308;21.916;2022-10-16T02:28:59;6.10;;;3.60;;
55527;SDS011;52818;43.308;21.916;2022-10-16T02:30:59;6.30;;;4.00;;
55527;SDS011;52818;43.308;21.916;2022-10-16T02:32:58;5.10;;;3.60;;
55527;SDS011;52818;43.308;21.916;2022-10-16T02:34:58;6.10;;;3.70;;
55527;SDS011;52818;43.308;21.916;2022-10-16T02:36:58;5.50;;;3.80;;
55527;SDS011;52818;43.308;21.916;2022-10-16T02:38:59;5.10;;;3.60;;
55527;SDS011;52818;43.308;21.916;2022-10-16T02:40:59;5.30;;;3.50;;
55527;SDS011;52818;43.308;21.916;2022-10-16T02:42:59;4.70;;;3.40;;
55527;SDS011;52818;43.308;21.916;2022-10-16T02:44:59;4.90;;;3.80;;
55527;SDS011;52818;43.308;21.916;2022-10-16T02:46:59;4.30;;;3.60;;
55527;SDS011;52818;43.308;21.916;2022-10-16T02:48:59;4.60;;;3.50;;
55527;SDS011;52818;43.308;21.916;2022-10-16T02:50:59;6.50;;;3.80;;
55527;SDS011;52818;43.308;21.916;2022-10-16T02:52:59;6.70;;;4.80;;
55527;SDS011;52818;43.308;21.916;2022-10-16T02:54:59;8.30;;;5.00;;
55527;SDS011;52818;43.308;21.916;2022-10-16T02:59:29;;;;6.20;;
55527;SDS011;52818;43.308;21.916;2022-10-16T03:01:30;9.60;;;;;
55527;SDS011;52818;43.308;21.916;2022-10-16T03:03:30;10.40;;;6.60;;
55527;SDS011;52818;43.308;21.916;2022-10-16T03:05:30;8.20;;;5.40;;
55527;SDS011;52818;43.308;21.916;2022-10-16T03:07:30;6.30;;;4.70;;
55527;SDS011;52818;43.308;21.916;2022-10-16T03:09:30;7.60;;;;;
55527;SDS011;52818;43.308;21.916;2022-10-16T03:11:30;4.80;;;3.90;;
55527;SDS011;52818;43.308;21.916;2022-10-16T03:13:30;6.20;;;4.30;;
55527;SDS011;52818;43.308;21.916;2022-10-16T03:17:31;5.80;;;4.10;;
55527;SDS011;52818;43.308;21.916;2022-10-16T03:19:31;6.60;;;4.50;;
55527;SDS011;52818;43.308;21.916;2022-10-16T03:21:31;6.40;;;4.20;;
55527;SDS011;52818;43.308;21.916;2022-10-16T03:23:31;4.70;;;3.90;;
55527;SDS011;52818;43.308;21.916;2022-10-16T03:25:31;5.30;;;;;
55527;SDS011;52818;43.308;21.916;2022-10-16T03:27:31;8.60;;;4.40;;
55527;SDS011;52818;43.308;21.916;2022-10-16T03:29:31;6.00;;;4.20;;
55527;SDS011;52818;43.308;21.916;2022-10-16T03:31:31;5.40;;;4.00;;
55527;SDS011;52818;43.308;21.916;2022-10-16T03:33:31;6.30;;;4.50;;
55527;SDS011;52818;43.308;21.916;2022-10-16T03:35:32;6.20;;;4.40;;
55527;SDS011;52818;43.308;21.916;2022-10-16T03:37:32;6.70;;;4.10;;
55527;SDS011;52818;43.308;21.916;2022-10-16T03:39:32;6.00;;;4.30;;
55527;SDS011;52818;43.308;21.916;2022-10-16T03:41:32;5.70;;;4.40;;
55527;SDS011;52818;43.308;21.916;2022-10-16T03:43:32;5.90;;;4.10;;
55527;SDS011;52818;43.308;21.916;2022-10-16T03:45:32;9.70;;;5.30;;
55527;SDS011;52818;43.308;21.916;2022-10-16T03:47:32;8.50;;;5.60;;
55527;SDS011;52818;43.308;21.916;2022-10-16T03:49:32;14.60;;;7.30;;
55527;SDS011;52818;43.308;21.916;2022-10-16T03:51:33;14.80;;;7.50;;
55527;SDS011;52818;43.308;21.916;2022-10-16T03:53:33;15.40;;;8.50;;
55527;SDS011;52818;43.308;21.916;2022-10-16T03:55:33;14.70;;;8.20;;
55527;SDS011;52818;43.308;21.916;2022-10-16T03:57:33;13.90;;;8.40;;
55527;SDS011;52818;43.308;21.916;2022-10-16T03:59:33;18.10;;;8.80;;
55527;SDS011;52818;43.308;21.916;2022-10-16T04:01:33;15.70;;;8.90;;
55527;SDS011;52818;43.308;21.916;2022-10-16T04:03:33;13.50;;;8.70;;
55527;SDS011;52818;43.308;21.916;2022-10-16T04:05:33;13.00;;;8.40;;
55527;SDS011;52818;43.308;21.916;2022-10-16T04:07:33;9.90;;;6.70;;
55527;SDS011;52818;43.308;21.916;2022-10-16T04:09:33;6.70;;;5.30;;
55527;SDS011;52818;43.308;21.916;2022-10-16T04:11:33;7.60;;;5.00;;
55527;SDS011;52818;43.308;21.916;2022-10-16T04:13:34;6.90;;;4.70;;
55527;SDS011;52818;43.308;21.916;2022-10-16T04:15:34;5.80;;;4.30;;
55527;SDS011;52818;43.308;21.916;2022-10-16T04:17:34;8.50;;;4.50;;
55527;SDS011;52818;43.308;21.916;2022-10-16T04:19:34;6.50;;;4.20;;
55527;SDS011;52818;43.308;21.916;2022-10-16T04:21:34;5.90;;;3.90;;
55527;SDS011;52818;43.308;21.916;2022-10-16T04:23:34;6.30;;;;;
55527;SDS011;52818;43.308;21.916;2022-10-16T04:25:34;8.40;;;4.60;;
55527;SDS011;52818;43.308;21.916;2022-10-16T04:27:34;6.20;;;4.20;;
55527;SDS011;52818;43.308;21.916;2022-10-16T04:29:34;6.10;;;4.60;;
55527;SDS011;52818;43.308;21.916;2022-10-16T04:31:34;6.60;;;4.30;;
55527;SDS011;52818;43.308;21.916;2022-10-16T04:33:35;6.70;;;4.80;;
55527;SDS011;52818;43.308;21.916;2022-10-16T04:35:35;7.30;;;5.00;;
55527;SDS011;52818;43.308;21.916;2022-10-16T04:37:35;7.00;;;;;
55527;SDS011;52818;43.308;21.916;2022-10-16T04:39:35;5.20;;;4.10;;
55527;SDS011;52818;43.308;21.916;2022-10-16T04:41:35;5.80;;;4.40;;
55527;SDS011;52818;43.308;21.916;2022-10-16T04:43:35;7.40;;;4.80;;
55527;SDS011;52818;43.308;21.916;2022-10-16T04:45:35;5.50;;;4.40;;
55527;SDS011;52818;43.308;21.916;2022-10-16T04:47:35;6.10;;;4.30;;
55527;SDS011;52818;43.308;21.916;2022-10-16T04:49:35;6.20;;;4.80;;
55527;SDS011;52818;43.308;21.916;2022-10-16T04:51:36;6.10;;;4.60;;
55527;SDS011;52818;43.308;21.916;2022-10-16T04:53:36;6.30;;;4.70;;
55527;SDS011;52818;43.308;21.916;2022-10-16T04:55:36;6.40;;;;;
55527;SDS011;52818;43.308;21.916;2022-10-16T04:57:36;;;;4.50;;
55527;SDS011;52818;43.308;21.916;2022-10-16T04:59:36;7.20;;;5.20;;
55527;SDS011;52818;43.308;21.916;2022-10-16T05:01:36;6.30;;;4.40;;
55527;SDS011;52818;43.308;21.916;2022-10-16T05:03:36;6.70;;;4.60;;
55527;SDS011;52818;43.308;21.916;2022-10-16T05:05:36;7.20;;;;;
55527;SDS011;52818;43.308;21.916;2022-10-16T05:07:36;5.40;;;4.30;;
55527;SDS011;52818;43.308;21.916;2022-10-16T05:09:37;6.10;;;4.70;;
55527;SDS011;52818;43.308;21.916;2022-10-16T05:11:37;6.00;;;4.40;;
55527;SDS011;52818;43.308;21.916;2022-10-16T05:13:37;7.50;;;4.50;;
55527;SDS011;52818;43.308;21.916;2022-10-16T05:15:37;8.30;;;4.60;;
55527;SDS011;52818;43.308;21.916;2022-10-16T05:17:37;6.40;;;4.40;;
55527;SDS011;52818;43.308;21.916;2022-10-16T05:19:37;6.90;;;;;
55527;SDS011;52818;43.308;21.916;2022-10-16T05:21:37;9.00;;;5.40;;
55527;SDS011;52818;43.308;21.916;2022-10-16T05:23:37;;;;6.00;;
55527;SDS011;52818;43.308;21.916;2022-10-16T05:25:37;10.60;;;6.80;;
55527;SDS011;52818;43.308;21.916;2022-10-16T05:27:38;13.20;;;8.00;;
55527;SDS011;52818;43.308;21.916;2022-10-16T05:29:38;14.20;;;8.80;;
55527;SDS011;52818;43.308;21.916;2022-10-16T05:31:38;15.60;;;9.50;;
55527;SDS011;52818;43.308;21.916;2022-10-16T05:33:38;16.30;;;9.80;;
55527;SDS011;52818;43.308;21.916;2022-10-16T05:35:38;;;;10.10;;
55527;SDS011;52818;43.308;21.916;2022-10-16T05:37:38;16.90;;;10.20;;
55527;SDS011;52818;43.308;21.916;2022-10-16T05:39:38;16.20;;;;;
55527;SDS011;52818;43.308;21.916;2022-10-16T05:41:38;15.40;;;10.30;;
55527;SDS011;52818;43.308;21.916;2022-10-16T05:43:38;17.00;;;10.40;;
55527;SDS011;52818;43.308;21.916;2022-10-16T05:45:38;13.60;;;10.10;;
55527;SDS011;52818;43.308;21.916;2022-10-16T05:47:39;14.10;;;9.40;;
55527;SDS011;52818;43.308;21.916;2022-10-16T05:49:39;14.00;;;;;
55527;SDS011;52818;43.308;21.916;2022-10-16T05:51:39;11.30;;;8.50;;
55527;SDS011;52818;43.308;21.916;2022-10-16T05:53:39;12.70;;;;;
55527;SDS011;52818;43.308;21.916;2022-10-16T05:55:39;10.20;;;8.30;;
55527;SDS011;52818;43.308;21.916;2022-10-16T05:57:39;11.50;;;;;
55527;SDS011;52818;43.308;21.916;2022-10-16T05:59:39;12.50;;;8.90;;
55527;SDS011;52818;43.308;21.916;2022-10-16T06:01:39;10.80;;;8.00;;
55527;SDS011;52818;43.308;21.916;2022-10-16T06:03:39;13.20;;;8.20;;
55527;SDS011;52818;43.308;21.916;2022-10-16T06:05:39;11.00;;;7.10;;
55527;SDS011;52818;43.308;21.916;2022-10-16T06:07:40;14.70;;;10.50;;
55527;SDS011;52818;43.308;21.916;2022-10-16T06:09:40;12.50;;;9.40;;
55527;SDS011;52818;43.308;21.916;2022-10-16T06:11:40;12.80;;;9.10;;
55527;SDS011;52818;43.308;21.916;2022-10-16T06:13:40;10.80;;;8.40;;
55527;SDS011;52818;43.308;21.916;2022-10-16T06:15:40;13.00;;;8.70;;
55527;SDS011;52818;43.308;21.916;2022-10-16T06:17:40;10.60;;;7.20;;
55527;SDS011;52818;43.308;21.916;2022-10-16T06:19:40;10.50;;;;;
55527;SDS011;52818;43.308;21.916;2022-10-16T06:21:40;9.60;;;7.40;;
55527;SDS011;52818;43.308;21.916;2022-10-16T06:23:40;10.30;;;7.70;;
55527;SDS011;52818;43.308;21.916;2022-10-16T06:25:40;13.50;;;9.60;;
55527;SDS011;52818;43.308;21.916;2022-10-16T06:27:41;13.70;;;10.20;;
55527;SDS011;52818;43.308;21.916;2022-10-16T06:29:41;12.10;;;8.80;;
55527;SDS011;52818;43.308;21.916;2022-10-16T06:31:41;20.30;;;14.10;;
55527;SDS011;52818;43.308;21.916;2022-10-16T06:33:41;18.50;;;12.40;;
55527;SDS011;52818;43.308;21.916;2022-10-16T06:35:41;16.50;;;12.20;;
55527;SDS011;52818;43.308;21.916;2022-10-16T06:37:41;14.60;;;10.30;;
55527;SDS011;52818;43.308;21.916;2022-10-16T06:39:41;13.60;;;8.90;;
55527;SDS011;52818;43.308;21.916;2022-10-16T06:41:41;15.90;;;9.20;;
55527;SDS011;52818;43.308;21.916;2022-10-16T06:43:41;13.50;;;9.30;;
55527;SDS011;52818;43.308;21.916;2022-10-16T06:45:41;11.40;;;8.40;;
55527;SDS011;52818;43.308;21.916;2022-10-16T06:47:42;12.30;;;;;
55527;SDS011;52818;43.308;21.916;2022-10-16T06:49:42;11.70;;;8.90;;
55527;SDS011;52818;43.308;21.916;2022-10-16T06:51:42;12.50;;;9.00;;
55527;SDS011;52818;43.308;21.916;2022-10-16T06:53:44;13.20;;;;;
55527;SDS011;52818;43.308;21.916;2022-10-16T06:55:42;16.00;;;9.20;;
55527;SDS011;52818;43.308;21.916;2022-10-16T06:57:42;12.90;;;9.00;;
55527;SDS011;52818;43.308;21.916;2022-10-16T06:59:42;12.10;;;8.20;;
55527;SDS011;52818;43.308;21.916;2022-10-16T07:01:42;10.80;;;7.70;;
55527;SDS011;52818;43.308;21.916;2022-10-16T07:03:43;11.70;;;7.80;;
55527;SDS011;52818;43.308;21.916;2022-10-16T07:05:43;9.00;;;7.40;;
55527;SDS011;52818;43.308;21.916;2022-10-16T07:07:42;11.00;;;8.30;;
55527;SDS011;52818;43.308;21.916;2022-10-16T07:09:42;10.60;;;7.30;;
55527;SDS011;52818;43.308;21.916;2022-10-16T07:11:43;9.60;;;6.70;;
55527;SDS011;52818;43.308;21.916;2022-10-16T07:13:43;8.10;;;6.10;;
55527;SDS011;52818;43.308;21.916;2022-10-16T07:15:43;10.50;;;6.50;;
55527;SDS011;52818;43.308;21.916;2022-10-16T07:17:43;8.70;;;6.10;;
55527;SDS011;52818;43.308;21.916;2022-10-16T07:19:44;8.80;;;5.80;;
55527;SDS011;52818;43.308;21.916;2022-10-16T07:21:43;7.90;;;;;
55527;SDS011;52818;43.308;21.916;2022-10-16T07:23:43;8.30;;;6.20;;
55527;SDS011;52818;43.308;21.916;2022-10-16T07:25:43;;;;5.60;;
55527;SDS011;52818;43.308;21.916;2022-10-16T07:27:43;9.00;;;6.50;;
55527;SDS011;52818;43.308;21.916;2022-10-16T07:29:43;9.70;;;6.70;;
55527;SDS011;52818;43.308;21.916;2022-10-16T07:31:44;8.80;;;7.30;;
55527;SDS011;52818;43.308;21.916;2022-10-16T07:33:44;13.10;;;9.20;;
55527;SDS011;52818;43.308;21.916;2022-10-16T07:35:47;15.40;;;9.90;;
55527;SDS011;52818;43.308;21.916;2022-10-16T07:37:44;15.20;;;10.70;;
55527;SDS011;52818;43.308;21.916;2022-10-16T07:39:44;12.60;;;9.40;;
55527;SDS011;52818;43.308;21.916;2022-10-16T07:41:44;14.40;;;9.90;;
55527;SDS011;52818;43.308;21.916;2022-10-16T07:43:45;13.10;;;;;
55527;SDS011;52818;43.308;21.916;2022-10-16T07:45:48;13.90;;;10.10;;
55527;SDS011;52818;43.308;21.916;2022-10-16T07:47:44;17.10;;;11.50;;
55527;SDS011;52818;43.308;21.916;2022-10-16T07:49:44;15.20;;;10.60;;
55527;SDS011;52818;43.308;21.916;2022-10-16T07:51:44;15.70;;;10.40;;
55527;SDS011;52818;43.308;21.916;2022-10-16T07:53:45;12.20;;;9.10;;
55527;SDS011;52818;43.308;21.916;2022-10-16T07:55:45;13.70;;;8.70;;
55527;SDS011;52818;43.308;21.916;2022-10-16T07:57:45;11.20;;;7.90;;
55527;SDS011;52818;43.308;21.916;2022-10-16T07:59:45;9.60;;;7.60;;
55527;SDS011;52818;43.308;21.916;2022-10-16T08:01:45;10.40;;;7.80;;
55527;SDS011;52818;43.308;21.916;2022-10-16T08:03:45;11.30;;;7.00;;
55527;SDS011;52818;43.308;21.916;2022-10-16T08:05:45;11.10;;;7.50;;
55527;SDS011;52818;43.308;21.916;2022-10-16T08:07:48;10.70;;;7.60;;
55527;SDS011;52818;43.308;21.916;2022-10-16T08:10:16;9.20;;;7.00;;
55527;SDS011;52818;43.308;21.916;2022-10-16T08:12:15;8.60;;;6.70;;
55527;SDS011;52818;43.308;21.916;2022-10-16T08:14:15;11.70;;;7.20;;
55527;SDS011;52818;43.308;21.916;2022-10-16T08:16:16;10.80;;;7.00;;
55527;SDS011;52818;43.308;21.916;2022-10-16T08:18:16;12.00;;;7.30;;
55527;SDS011;52818;43.308;21.916;2022-10-16T08:20:16;10.20;;;;;
55527;SDS011;52818;43.308;21.916;2022-10-16T08:22:16;9.90;;;6.80;;
55527;SDS011;52818;43.308;21.916;2022-10-16T08:24:16;14.00;;;7.50;;
55527;SDS011;52818;43.308;21.916;2022-10-16T08:26:16;8.70;;;6.50;;
55527;SDS011;52818;43.308;21.916;2022-10-16T08:28:16;9.10;;;6.30;;
55527;SDS011;52818;43.308;21.916;2022-10-16T08:30:17;10.10;;;6.80;;
55527;SDS011;52818;43.308;21.916;2022-10-16T08:32:17;11.80;;;7.00;;
55527;SDS011;52818;43.308;21.916;2022-10-16T08:34:17;;;;7.60;;
55527;SDS011;52818;43.308;21.916;2022-10-16T08:36:17;9.60;;;7.10;;
55527;SDS011;52818;43.308;21.916;2022-10-16T08:38:17;9.40;;;7.20;;
55527;SDS011;52818;43.308;21.916;2022-10-16T08:40:18;13.30;;;8.10;;
55527;SDS011;52818;43.308;21.916;2022-10-16T08:42:20;9.30;;;6.80;;
55527;SDS011;52818;43.308;21.916;2022-10-16T08:44:22;9.70;;;6.90;;
55527;SDS011;52818;43.308;21.916;2022-10-16T08:46:21;8.30;;;6.30;;
55527;SDS011;52818;43.308;21.916;2022-10-16T08:48:19;10.60;;;6.80;;
55527;SDS011;52818;43.308;21.916;2022-10-16T08:50:20;8.30;;;6.20;;
55527;SDS011;52818;43.308;21.916;2022-10-16T08:52:18;8.50;;;6.40;;
55527;SDS011;52818;43.308;21.916;2022-10-16T08:54:21;9.70;;;6.00;;
55527;SDS011;52818;43.308;21.916;2022-10-16T08:56:18;8.00;;;6.10;;
55527;SDS011;52818;43.308;21.916;2022-10-16T08:58:19;10.90;;;7.30;;
55527;SDS011;52818;43.308;21.916;2022-10-16T09:00:18;10.50;;;7.70;;
55527;SDS011;52818;43.308;21.916;2022-10-16T09:02:22;8.40;;;6.60;;
55527;SDS011;52818;43.308;21.916;2022-10-16T09:04:26;9.30;;;6.30;;
55527;SDS011;52818;43.308;21.916;2022-10-16T09:06:23;11.00;;;8.00;;
55527;SDS011;52818;43.308;21.916;2022-10-16T09:08:20;10.00;;;7.30;;
55527;SDS011;52818;43.308;21.916;2022-10-16T09:10:22;8.50;;;6.30;;
55527;SDS011;52818;43.308;21.916;2022-10-16T09:12:20;9.00;;;6.50;;
55527;SDS011;52818;43.308;21.916;2022-10-16T09:14:23;8.90;;;6.30;;
55527;SDS011;52818;43.308;21.916;2022-10-16T09:16:19;10.30;;;6.90;;
55527;SDS011;52818;43.308;21.916;2022-10-16T09:18:20;8.60;;;6.30;;
55527;SDS011;52818;43.308;21.916;2022-10-16T09:20:22;10.80;;;6.70;;
55527;SDS011;52818;43.308;21.916;2022-10-16T09:22:19;9.30;;;;;
55527;SDS011;52818;43.308;21.916;2022-10-16T09:24:20;10.00;;;7.00;;
55527;SDS011;52818;43.308;21.916;2022-10-16T09:26:19;11.50;;;6.80;;
55527;SDS011;52818;43.308;21.916;2022-10-16T09:28:20;10.60;;;6.40;;
55527;SDS011;52818;43.308;21.916;2022-10-16T09:30:20;8.00;;;6.00;;
55527;SDS011;52818;43.308;21.916;2022-10-16T09:32:20;9.40;;;6.70;;
55527;SDS011;52818;43.308;21.916;2022-10-16T09:34:21;8.10;;;6.20;;
55527;SDS011;52818;43.308;21.916;2022-10-16T09:36:20;10.70;;;6.50;;
55527;SDS011;52818;43.308;21.916;2022-10-16T09:38:21;8.80;;;6.60;;
55527;SDS011;52818;43.308;21.916;2022-10-16T09:40:24;8.70;;;5.90;;
55527;SDS011;52818;43.308;21.916;2022-10-16T09:42:21;8.60;;;6.30;;
55527;SDS011;52818;43.308;21.916;2022-10-16T09:44:22;7.40;;;6.10;;
55527;SDS011;52818;43.308;21.916;2022-10-16T09:46:22;8.50;;;6.40;;
55527;SDS011;52818;43.308;21.916;2022-10-16T09:48:20;7.20;;;5.90;;
55527;SDS011;52818;43.308;21.916;2022-10-16T09:50:22;8.10;;;5.40;;
55527;SDS011;52818;43.308;21.916;2022-10-16T09:52:21;7.00;;;;;
55527;SDS011;52818;43.308;21.916;2022-10-16T09:54:21;8.20;;;5.90;;
55527;SDS011;52818;43.308;21.916;2022-10-16T09:56:21;8.70;;;5.70;;
55527;SDS011;52818;43.308;21.916;2022-10-16T09:58:21;6.50;;;5.00;;
55527;SDS011;52818;43.308;21.916;2022-10-16T10:00:21;7.90;;;5.50;;
55527;SDS011;52818;43.308;21.916;2022-10-16T10:02:23;7.00;;;5.70;;
55527;SDS011;52818;43.308;21.916;2022-10-16T10:04:22;6.90;;;5.50;;
55527;SDS011;52818;43.308;21.916;2022-10-16T10:06:22;8.00;;;5.70;;
55527;SDS011;52818;43.308;21.916;2022-10-16T10:08:21;6.30;;;5.30;;
55527;SDS011;52818;43.308;21.916;2022-10-16T10:10:22;8.60;;;5.40;;
55527;SDS011;52818;43.308;21.916;2022-10-16T10:12:23;6.60;;;5.00;;
55527;SDS011;52818;43.308;21.916;2022-10-16T10:14:23;8.40;;;5.20;;
55527;SDS011;52818;43.308;21.916;2022-10-16T10:16:23;6.80;;;5.00;;
55527;SDS011;52818;43.308;21.916;2022-10-16T10:18:22;7.60;;;5.10;;
55527;SDS011;52818;43.308;21.916;2022-10-16T10:20:23;7.40;;;5.20;;
55527;SDS011;52818;43.308;21.916;2022-10-16T10:22:25;9.40;;;5.70;;
55527;SDS011;52818;43.308;21.916;2022-10-16T10:24:22;7.20;;;5.30;;
55527;SDS011;52818;43.308;21.916;2022-10-16T10:26:23;5.80;;;4.90;;
55527;SDS011;52818;43.308;21.916;2022-10-16T10:28:27;7.60;;;5.20;;
55527;SDS011;52818;43.308;21.916;2022-10-16T10:30:24;7.30;;;5.30;;
55527;SDS011;52818;43.308;21.916;2022-10-16T10:32:24;7.80;;;5.10;;
55527;SDS011;52818;43.308;21.916;2022-10-16T10:34:26;5.90;;;4.80;;
55527;SDS011;52818;43.308;21.916;2022-10-16T10:36:25;6.40;;;4.60;;
55527;SDS011;52818;43.308;21.916;2022-10-16T10:38:27;7.20;;;5.00;;
55527;SDS011;52818;43.308;21.916;2022-10-16T10:40:27;7.80;;;5.10;;
55527;SDS011;52818;43.308;21.916;2022-10-16T10:42:24;6.60;;;4.90;;
55527;SDS011;52818;43.308;21.916;2022-10-16T10:44:26;6.80;;;4.70;;
55527;SDS011;52818;43.308;21.916;2022-10-16T10:46:25;7.80;;;4.80;;
55527;SDS011;52818;43.308;21.916;2022-10-16T10:48:27;7.30;;;4.90;;
55527;SDS011;52818;43.308;21.916;2022-10-16T10:50:24;6.00;;;;;
55527;SDS011;52818;43.308;21.916;2022-10-16T10:52:58;6.30;;;4.60;;
55527;SDS011;52818;43.308;21.916;2022-10-16T10:54:55;6.50;;;5.00;;
55527;SDS011;52818;43.308;21.916;2022-10-16T10:56:56;6.80;;;4.80;;
55527;SDS011;52818;43.308;21.916;2022-10-16T10:59:00;7.10;;;5.00;;
55527;SDS011;52818;43.308;21.916;2022-10-16T11:00:55;7.40;;;4.90;;
55527;SDS011;52818;43.308;21.916;2022-10-16T11:02:55;6.50;;;4.50;;
55527;SDS011;52818;43.308;21.916;2022-10-16T11:04:58;7.30;;;;;
55527;SDS011;52818;43.308;21.916;2022-10-16T11:06:55;5.40;;;4.20;;
55527;SDS011;52818;43.308;21.916;2022-10-16T11:08:55;6.20;;;4.40;;
55527;SDS011;52818;43.308;21.916;2022-10-16T11:10:56;5.70;;;4.10;;
55527;SDS011;52818;43.308;21.916;2022-10-16T11:12:55;6.20;;;4.00;;
55527;SDS011;52818;43.308;21.916;2022-10-16T11:14:56;5.80;;;;;
55527;SDS011;52818;43.308;21.916;2022-10-16T11:16:56;5.30;;;3.90;;
55527;SDS011;52818;43.308;21.916;2022-10-16T11:18:56;6.40;;;4.00;;
55527;SDS011;52818;43.308;21.916;2022-10-16T11:20:57;4.80;;;;;
55527;SDS011;52818;43.308;21.916;2022-10-16T11:22:56;5.40;;;4.10;;
55527;SDS011;52818;43.308;21.916;2022-10-16T11:25:02;6.40;;;3.50;;
55527;SDS011;52818;43.308;21.916;2022-10-16T11:26:55;4.40;;;3.40;;
55527;SDS011;52818;43.308;21.916;2022-10-16T11:28:55;4.00;;;3.10;;
55527;SDS011;52818;43.308;21.916;2022-10-16T11:30:57;5.00;;;3.20;;
55527;SDS011;52818;43.308;21.916;2022-10-16T11:33:00;4.20;;;2.90;;
55527;SDS011;52818;43.308;21.916;2022-10-16T11:34:57;4.90;;;2.80;;
55527;SDS011;52818;43.308;21.916;2022-10-16T11:36:57;;;;3.30;;
55527;SDS011;52818;43.308;21.916;2022-10-16T11:38:58;4.40;;;3.40;;
55527;SDS011;52818;43.308;21.916;2022-10-16T11:40:57;5.60;;;3.50;;
55527;SDS011;52818;43.308;21.916;2022-10-16T11:42:57;4.50;;;3.10;;
55527;SDS011;52818;43.308;21.916;2022-10-16T11:44:57;5.40;;;3.20;;
55527;SDS011;52818;43.308;21.916;2022-10-16T11:46:58;3.60;;;3.30;;
55527;SDS011;52818;43.308;21.916;2022-10-16T11:48:57;6.80;;;3.70;;
55527;SDS011;52818;43.308;21.916;2022-10-16T11:50:57;5.90;;;4.20;;
55527;SDS011;52818;43.308;21.916;2022-10-16T11:52:58;5.10;;;3.80;;
55527;SDS011;52818;43.308;21.916;2022-10-16T11:54:57;5.80;;;4.30;;
55527;SDS011;52818;43.308;21.916;2022-10-16T11:56:58;7.00;;;;;
55527;SDS011;52818;43.308;21.916;2022-10-16T11:58:57;5.20;;;4.10;;